Latest Weather Observations for Renmark Airport

IDS60801

Issued at 4:31 pm CST Saturday 24 June 2017 (issued every 30 minutes, with the page automatically refreshed every 10 minutes)

About weather observations | Map of weather stations | Latest weather observations for SA | Other Formats
Station Details ID: 024048 Name: RENMARK AERO Lat: -34.20 Lon: 140.68 Height: 31.5 m
Data from the previous 72 hours. | See also: Recent months at Renmark Airport
Date/Time
CST
Temp
°C
App
Temp
°C
Dew
Point
°C
Rel
Hum
%
Delta-T
°C
Wind Press
QNH
hPa
Press
MSL
hPa
Rain since
9am
mm
Dir  Spd
km/h
Gust
km/h
Spd
kts
Gust
kts
24/04:30pm 16.7 14.1 5.9 49 5.2 ENE 9 11 5 6 1017.9 1017.9 0.0
24/04:00pm 16.8 14.2 6.3 50 5.1 NE 9 11 5 6 1017.9 1017.9 0.0
24/03:30pm 17.5 15.4 6.7 49 5.3 E 7 11 4 6 1017.9 1017.9 0.0
24/03:00pm 17.9 16.4 6.7 48 5.6 WNW 4 9 2 5 1017.7 1017.7 0.0
24/02:30pm 17.5 15.3 6.4 48 5.5 NNE 7 15 4 8 1017.8 1017.8 0.0
24/02:00pm 17.4 15.2 6.0 47 5.6 ENE 7 17 4 9 1018.1 1018.1 0.0
24/01:30pm 17.3 16.0 5.9 47 5.5 ENE 2 6 1 3 1018.4 1018.4 0.0
24/01:00pm 16.9 14.8 6.7 51 5.0 SE 7 9 4 5 1018.8 1018.8 0.0
24/12:30pm 16.7 14.3 7.1 53 4.8 ENE 9 13 5 7 1019.3 1019.3 0.0
24/12:00pm 16.1 14.5 7.8 58 4.2 E 6 11 3 6 1019.7 1019.7 0.0
24/11:30am 15.5 13.0 8.0 61 3.8 ENE 11 15 6 8 1019.9 1019.9 0.0
24/11:00am 14.6 12.6 8.5 67 3.1 E 9 13 5 7 1020.4 1020.4 0.0
24/10:30am 13.7 11.6 8.1 69 2.8 NE 9 11 5 6 1020.7 1020.7 0.0
24/10:00am 12.1 10.0 6.6 69 2.6 E 7 9 4 5 1020.9 1020.9 0.0
24/09:30am 10.9 8.9 7.0 77 1.8 SE 7 11 4 6 1020.9 1020.9 0.0
24/09:00am 8.6 7.6 5.4 80 1.4 CALM 0 0 0 0 1020.8 1020.8 0.0
24/08:30am 5.4 4.3 5.1 98 0.1 CALM 0 0 0 0 1020.8 1020.8 0.0
24/08:00am 2.4 0.4 2.3 99 0.0 WSW 2 7 1 4 1020.6 1020.6 0.0
24/07:30am 0.6 -1.3 0.5 99 0.0 CALM 0 0 0 0 1020.5 1020.5 0.0
24/07:00am 2.4 0.8 2.3 99 0.0 CALM 0 0 0 0 1020.1 1020.1 0.0
24/06:30am 2.6 -0.1 2.5 99 0.0 WNW 6 7 3 4 1019.9 1019.9 0.0
24/06:00am 3.2 0.0 3.2 100 0.0 W 9 9 5 5 1019.5 1019.5 0.0
24/05:30am 3.6 0.5 3.6 100 0.0 W 9 9 5 5 1019.3 1019.3 0.0
24/05:00am 3.1 -0.1 3.1 100 0.0 WSW 9 11 5 6 1018.9 1018.9 0.0
24/04:30am 2.8 -0.5 2.7 99 0.0 WSW 9 11 5 6 1018.8 1018.8 0.0
24/04:00am 2.4 -0.9 2.3 99 0.0 WSW 9 11 5 6 1018.8 1018.8 0.0
24/03:30am 1.0 -2.7 0.1 94 0.3 W 9 11 5 6 1018.8 1018.8 0.0
24/03:00am 0.8 -2.5 -0.2 93 0.4 WSW 7 9 4 5 1018.5 1018.5 0.0
24/02:30am 1.3 -1.8 0.1 92 0.4 W 6 6 3 3 1018.4 1018.4 0.0
24/02:00am 2.2 -0.9 0.4 88 0.7 WSW 6 7 3 4 1018.6 1018.6 0.0
24/01:30am 2.4 -0.6 0.9 90 0.6 W 6 7 3 4 1018.6 1018.6 0.0
24/01:00am 3.0 0.1 1.5 90 0.6 WNW 6 7 3 4 1018.6 1018.6 0.0
24/12:30am 3.0 -0.2 0.6 84 0.9 W 7 7 4 4 1018.5 1018.5 0.0
24/12:00am 4.2 1.2 1.1 80 1.2 W 6 6 3 3 1018.6 1018.6 0.0
 
Date/Time
CST
Temp
°C
App
Temp
°C
Dew
Point
°C
Rel
Hum
%
Delta-T
°C
Wind Press
QNH
hPa
Press
MSL
hPa
Rain since
9am
mm
Dir  Spd
km/h
Gust
km/h
Spd
kts
Gust
kts
23/11:30pm 5.1 2.2 1.4 77 1.5 W 6 7 3 4 1018.6 1018.6 0.0
23/11:00pm 6.7 4.0 2.4 74 1.8 WSW 6 6 3 3 1018.4 1018.4 0.0
23/10:30pm 6.6 3.8 2.9 77 1.5 SSW 7 9 4 5 1018.3 1018.3 0.0
23/10:00pm 6.2 3.2 1.7 73 1.8 SW 7 9 4 5 1018.1 1018.1 0.0
23/09:30pm 7.5 6.0 2.8 72 2.0 CALM 0 6 0 3 1017.9 1017.9 0.0
23/09:00pm 9.2 7.0 3.4 67 2.5 W 4 7 2 4 1018.1 1018.1 0.0
23/08:30pm 10.4 9.0 3.7 63 2.9 CALM 0 0 0 0 1017.8 1017.8 0.0
23/08:00pm 10.5 9.1 3.5 62 3.1 CALM 0 0 0 0 1017.7 1017.7 0.0
23/07:30pm 10.9 9.5 3.7 61 3.2 CALM 0 0 0 0 1017.6 1017.6 0.0
23/07:00pm 11.3 9.9 3.8 60 3.3 CALM 0 0 0 0 1017.5 1017.5 0.0
23/06:30pm 12.4 11.1 3.9 56 3.8 CALM 0 0 0 0 1017.4 1017.4 0.0
23/06:00pm 12.9 11.5 3.8 54 4.1 CALM 0 0 0 0 1016.9 1016.9 0.0
23/05:30pm 14.6 13.3 4.0 49 4.9 CALM 0 0 0 0 1016.7 1016.7 0.0
23/05:00pm 15.6 13.9 4.0 46 5.4 SW 2 6 1 3 1016.7 1016.7 0.0
23/04:30pm 16.6 13.9 3.7 42 6.0 SSW 7 9 4 5 1016.7 1016.7 0.0
23/04:00pm 17.2 15.8 3.8 41 6.3 CALM 0 0 0 0 1016.9 1016.9 0.0
23/03:30pm 18.1 15.5 3.2 37 6.9 SW 6 7 3 4 1016.6 1016.6 0.0
23/03:00pm 18.4 15.6 3.1 36 7.1 WSW 7 11 4 6 1016.8 1016.8 0.0
23/02:30pm 18.6 14.6 2.9 35 7.3 WSW 13 17 7 9 1017.0 1017.0 0.0
23/02:00pm 18.6 14.2 2.9 35 7.3 W 15 20 8 11 1017.2 1017.2 0.0
23/01:30pm 18.2 13.5 2.9 36 7.1 W 17 24 9 13 1017.4 1017.4 0.0
23/01:00pm 18.1 13.0 3.2 37 6.9 W 19 24 10 13 1017.8 1017.8 0.0
23/12:30pm 17.8 13.8 2.9 37 6.8 W 13 17 7 9 1018.1 1018.1 0.0
23/12:00pm 16.9 13.2 2.5 38 6.5 WNW 11 15 6 8 1018.9 1018.9 0.0
23/11:30am 15.9 12.6 2.3 40 6.1 WNW 9 13 5 7 1019.3 1019.3 0.0
23/11:00am 15.3 11.9 2.1 41 5.9 WNW 9 13 5 7 1019.6 1019.6 0.0
23/10:30am 14.3 10.6 2.2 44 5.3 NNW 11 15 6 8 1019.7 1019.7 0.0
23/10:00am 14.9 11.5 2.1 42 5.7 NW 9 15 5 8 1019.7 1019.7 0.0
23/09:30am 11.9 9.2 2.4 52 4.1 WNW 6 9 3 5 1020.0 1020.0 0.0
23/09:00am 8.6 7.1 2.8 67 2.4 CALM 0 0 0 0 1019.7 1019.7 0.0
23/08:30am 6.4 3.7 2.5 76 1.6 WNW 6 7 3 4 1019.8 1019.8 0.0
23/08:00am 4.1 2.6 2.8 91 0.5 CALM 0 0 0 0 1019.6 1019.6 0.0
23/07:30am 2.8 1.0 1.3 90 0.6 CALM 0 2 0 1 1019.6 1019.6 0.0
23/07:00am 2.3 0.4 0.8 90 0.6 CALM 0 7 0 4 1019.8 1019.8 0.0
23/06:30am 3.4 0.6 3.3 99 0.0 NNE 7 9 4 5 1019.0 1019.0 0.0
23/06:00am 2.5 -0.2 2.4 99 0.0 N 6 6 3 3 1019.3 1019.3 0.0
23/05:30am 0.7 -1.3 -0.2 94 0.3 CALM 0 0 0 0 1019.2 1019.2 0.0
23/05:00am 1.5 -0.3 1.4 99 0.0 CALM 0 0 0 0 1019.1 1019.1 0.0
23/04:30am 0.2 -1.9 -0.6 94 0.3 CALM 0 0 0 0 1019.6 1019.6 0.0
23/04:00am 0.8 -1.3 -0.6 90 0.5 CALM 0 0 0 0 1019.5 1019.5 0.0
23/03:30am 1.2 -0.8 -0.3 90 0.5 CALM 0 0 0 0 1019.9 1019.9 0.0
23/03:00am 1.4 -1.8 -0.4 88 0.6 N 6 7 3 4 1020.0 1020.0 0.0
23/02:30am 1.8 -1.3 0.2 89 0.6 N 6 7 3 4 1020.3 1020.3 0.0
23/02:00am 1.7 -0.3 0.1 89 0.6 CALM 0 0 0 0 1020.7 1020.7 0.0
23/01:30am 1.0 -1.1 -1.1 86 0.7 CALM 0 0 0 0 1020.7 1020.7 0.0
23/01:00am 0.9 -2.6 -1.0 87 0.7 N 7 7 4 4 1020.8 1020.8 0.0
23/12:30am 1.6 -0.9 -1.1 82 1.0 N 2 7 1 4 1021.2 1021.2 0.0
23/12:00am 0.9 -1.2 -0.5 90 0.5 CALM 0 0 0 0 1021.5 1021.5 0.0
 
Date/Time
CST
Temp
°C
App
Temp
°C
Dew
Point
°C
Rel
Hum
%
Delta-T
°C
Wind Press
QNH
hPa
Press
MSL
hPa
Rain since
9am
mm
Dir  Spd
km/h
Gust
km/h
Spd
kts
Gust
kts
22/11:30pm 0.6 -1.6 -1.8 84 0.9 CALM 0 0 0 0 1021.9 1021.9 0.0
22/11:00pm 1.1 -2.2 -1.6 82 0.9 NE 6 7 3 4 1022.0 1022.0 0.0
22/10:30pm 1.4 -0.7 -0.8 85 0.8 CALM 0 0 0 0 1022.4 1022.4 0.0
22/10:00pm 2.3 0.3 -0.4 82 1.0 CALM 0 6 0 3 1022.5 1022.5 0.0
22/09:30pm 2.5 0.1 -0.6 80 1.1 NE 2 6 1 3 1022.4 1022.4 0.0
22/09:00pm 3.1 0.0 0.2 81 1.1 NE 6 6 3 3 1022.5 1022.5 0.0
22/08:30pm 5.9 2.8 1.6 74 1.7 NE 7 9 4 5 1022.7 1022.7 0.0
22/08:00pm 7.7 4.2 3.4 74 1.8 NE 11 13 6 7 1022.5 1022.5 0.0
22/07:30pm 8.8 5.9 4.4 74 1.9 NE 9 11 5 6 1022.7 1022.7 0.0
22/07:00pm 5.8 3.2 1.0 71 1.9 ENE 4 6 2 3 1023.1 1023.1 0.0
22/06:30pm 7.1 4.3 2.2 71 2.0 E 6 6 3 3 1023.0 1023.0 0.0
22/06:00pm 8.7 5.9 2.3 64 2.7 E 6 7 3 4 1022.8 1022.8 0.0
22/05:30pm 10.8 7.9 2.6 57 3.5 NE 7 7 4 4 1022.9 1022.9 0.0
22/05:00pm 12.6 9.5 3.6 54 4.0 NE 9 11 5 6 1022.7 1022.7 0.0
22/04:30pm 14.4 10.6 3.8 49 4.8 NE 13 20 7 11 1023.0 1023.0 0.0
22/04:00pm 16.5 12.0 4.2 44 5.8 NE 17 20 9 11 1022.9 1022.9 0.0
22/03:30pm 16.7 12.7 4.7 45 5.7 NE 15 22 8 12 1022.9 1022.9 0.0
22/03:00pm 16.6 12.5 4.3 44 5.7 NNE 15 24 8 13 1023.1 1023.1 0.0
22/02:30pm 16.4 12.0 4.8 46 5.5 NNE 17 24 9 13 1023.2 1023.2 0.0
22/02:00pm 16.8 12.7 4.5 44 5.8 NNE 15 24 8 13 1023.9 1023.9 0.0
22/01:30pm 16.5 12.3 5.5 48 5.3 NNE 17 26 9 14 1024.5 1024.5 0.0
22/01:00pm 16.2 12.0 5.5 49 5.1 NNE 17 24 9 13 1024.9 1024.9 0.0
22/12:30pm 16.1 12.0 6.0 51 4.9 NNE 17 24 9 13 1025.4 1025.4 0.0
22/12:00pm 15.5 11.1 6.5 55 4.4 N 19 24 10 13 1026.1 1026.1 0.0
22/11:30am 14.3 10.3 6.6 60 3.7 N 17 24 9 13 1026.8 1026.8 0.0
22/11:00am 14.3 10.4 6.9 61 3.6 NNE 17 22 9 12 1027.4 1027.4 0.0
22/10:30am 12.4 9.1 6.2 66 2.9 N 13 17 7 9 1028.1 1028.1 0.0
22/10:00am 11.0 8.0 6.2 72 2.2 NNE 11 15 6 8 1028.5 1028.5 0.0
22/09:30am 10.1 7.4 5.7 74 2.0 NNE 9 13 5 7 1028.6 1028.6 0.0
22/09:00am 7.7 6.7 5.7 87 0.9 CALM 0 4 0 2 1028.4 1028.4 0.0
22/08:57am 7.2 6.2 5.5 89 0.8 CALM 0 0 0 0 1028.3 1028.3 0.0
22/08:30am 2.2 0.5 2.1 99 0.0 CALM 0 0 0 0 1028.1 1028.1 0.0
22/08:00am -0.2 -2.3 -0.5 98 0.1 CALM 0 0 0 0 1027.9 1027.9 0.0
22/07:30am -0.9 -3.1 -1.3 97 0.1 CALM 0 0 0 0 1027.6 1027.6 0.0
22/07:00am -0.8 -4.1 -0.9 99 0.0 NNE 6 7 3 4 1027.0 1027.0 0.0
22/06:30am -2.1 -4.4 -2.4 98 0.0 CALM 0 0 0 0 1027.3 1027.3 0.0
22/06:00am -2.4 -4.7 -2.7 98 0.0 CALM 0 2 0 1 1027.1 1027.1 0.0
22/05:52am -1.6 -3.8 -1.7 99 0.0 CALM 0 0 0 0 1026.8 1026.8 0.0
22/05:30am -1.8 -4.0 -1.9 99 0.0 CALM 0 0 0 0 1026.8 1026.8 0.0
22/05:02am -2.1 -5.2 -2.5 97 0.0 WSW 4 6 2 3 1027.1 1027.1 0.0
22/05:00am -2.1 -5.2 -2.6 96 0.1 WSW 4 6 2 3 1027.0 1027.0 0.0
22/04:30am -1.3 -3.9 -2.0 95 0.2 WSW 2 6 1 3 1026.8 1026.8 0.0
22/04:00am -1.5 -3.8 -2.3 94 0.2 CALM 0 0 0 0 1026.8 1026.8 0.0
22/03:30am -0.6 -2.7 -0.7 99 0.0 CALM 0 0 0 0 1026.7 1026.7 0.0
22/03:00am -1.1 -3.3 -1.8 95 0.2 CALM 0 0 0 0 1026.6 1026.6 0.0
22/02:30am 0.0 -2.0 -0.3 98 0.1 CALM 0 4 0 2 1026.8 1026.8 0.0
22/02:00am -0.3 -2.5 -1.3 93 0.3 CALM 0 0 0 0 1026.9 1026.9 0.0
22/01:30am 0.3 -1.7 -0.1 97 0.1 CALM 0 0 0 0 1027.0 1027.0 0.0
22/01:00am 0.0 -2.2 -1.7 88 0.6 CALM 0 0 0 0 1027.0 1027.0 0.0
22/12:30am 0.7 -1.4 -1.1 88 0.6 CALM 0 0 0 0 1027.0 1027.0 0.0
22/12:00am 0.8 -1.3 -0.8 89 0.6 CALM 0 0 0 0 1027.4 1027.4 0.0
 
Date/Time
CST
Temp
°C
App
Temp
°C
Dew
Point
°C
Rel
Hum
%
Delta-T
°C
Wind Press
QNH
hPa
Press
MSL
hPa
Rain since
9am
mm
Dir  Spd
km/h
Gust
km/h
Spd
kts
Gust
kts
21/11:30pm 1.6 -0.5 -1.0 83 0.9 CALM 0 0 0 0 1027.5 1027.5 0.0
21/11:00pm 1.3 -0.8 -0.5 88 0.6 CALM 0 0 0 0 1027.6 1027.6 0.0
21/10:30pm 2.1 0.0 -1.0 80 1.1 CALM 0 0 0 0 1027.7 1027.7 0.0
21/10:00pm 2.3 0.2 -0.8 80 1.1 CALM 0 0 0 0 1027.7 1027.7 0.0
21/09:30pm 2.9 0.8 -0.5 78 1.2 CALM 0 0 0 0 1028.0 1028.0 0.0
21/09:00pm 3.4 1.4 0.1 79 1.2 CALM 0 0 0 0 1028.0 1028.0 0.0
21/08:30pm 3.8 1.8 0.0 76 1.4 CALM 0 0 0 0 1028.0 1028.0 0.0
21/08:00pm 4.4 2.4 0.2 74 1.6 CALM 0 0 0 0 1028.1 1028.1 0.0
21/07:30pm 5.1 3.2 0.3 71 1.8 CALM 0 0 0 0 1028.0 1028.0 0.0
21/07:00pm 6.0 4.1 0.6 68 2.1 CALM 0 0 0 0 1027.9 1027.9 0.0
21/06:30pm 7.7 6.1 2.2 68 2.3 CALM 0 0 0 0 1027.5 1027.5 0.0
21/06:00pm 10.0 7.7 2.8 61 3.1 N 4 7 2 4 1027.4 1027.4 0.0
21/05:30pm 13.1 9.8 4.3 55 4.0 NNE 11 13 6 7 1027.2 1027.2 0.0
21/05:00pm 13.6 11.1 3.7 51 4.5 NNE 6 6 3 3 1027.1 1027.1 0.0

Other Formats:

Comma delimited format used in spreadsheet applications
http://www.bom.gov.au/fwo/IDS60801/IDS60801.95687.axf

JavaScript Object Notation format (JSON) in row-major order
http://www.bom.gov.au/fwo/IDS60801/IDS60801.95687.json